Time;durP1;ratioP1;P1;durP2;ratioP2;P2;SDS_P1;SDS_P2;PMS_P1;PMS_P2;Temp;Humidity;BMP_temperature;BMP_pressure;BME280_temperature;BME280_humidity;BME280_pressure;Samples;Min_cycle;Max_cycle;Signal;HPM_P1;HPM_P2
2023/08/29 00:00:28;;;;;;;;;;;13.20;99.90;;;;;;5064955;28;19974;-61
2023/08/29 00:02:53;;;;;;;;;;;13.20;99.90;;;;;;5064158;28;19927;-62
2023/08/29 00:05:19;;;;;;;;;;;13.20;99.90;;;;;;5064825;28;24077;-57
2023/08/29 00:07:45;;;;;;;;;;;13.10;99.90;;;;;;5064130;28;19920;-58
2023/08/29 00:10:10;;;;;;;;;;;13.10;99.90;;;;;;5046310;28;20779;-54
2023/08/29 00:12:36;;;;;;;;;;;13.20;99.90;;;;;;5065805;28;20302;-60
2023/08/29 00:15:05;;;;;;;;;;;13.20;99.90;;;;;;5047432;28;20402;-56
2023/08/29 00:17:31;;;;;;;;;;;13.10;99.90;;;;;;5064407;28;20071;-58
2023/08/29 00:19:56;;;;;;;;;;;13.10;99.90;;;;;;5065257;28;20507;-59
2023/08/29 00:22:22;;;;;;;;;;;13.10;99.90;;;;;;5065555;28;19927;-61
2023/08/29 00:24:48;;;;;;;;;;;13.00;99.90;;;;;;5064314;28;20050;-58
2023/08/29 00:27:14;;;;;;;;;;;12.90;99.90;;;;;;5065159;28;19920;-62
2023/08/29 00:29:41;;;;;;;;;;;12.90;99.90;;;;;;5065388;28;20624;-58
2023/08/29 00:32:06;;;;;;;;;;;12.90;99.90;;;;;;5064617;28;19924;-58
2023/08/29 00:34:32;;;;;;;;;;;12.80;99.90;;;;;;5064307;28;19921;-58
2023/08/29 00:36:57;;;;;;;;;;;12.90;99.90;;;;;;5064487;28;24085;-61
2023/08/29 00:39:24;;;;;;;;;;;12.90;99.90;;;;;;5061089;28;25061;-58
2023/08/29 00:41:51;;;;;;;143.43;68.40;;;13.20;99.90;;;;;;5065289;28;19926;-59
2023/08/29 00:44:16;;;;;;;8.07;5.63;;;13.00;99.90;;;;;;5065629;28;20560;-61
2023/08/29 00:46:44;;;;;;;721.00;624.80;;;12.90;99.90;;;;;;5064735;28;20107;-61
2023/08/29 00:49:12;;;;;;;9.40;4.70;;;12.90;99.90;;;;;;5065238;28;25126;-60
2023/08/29 00:51:39;;;;;;;1310.40;960.97;;;12.80;99.90;;;;;;5064205;28;20048;-61
2023/08/29 00:54:06;;;;;;;7.07;5.07;;;12.80;99.90;;;;;;5065530;28;20068;-60
2023/08/29 00:56:32;;;;;;;1279.05;999.90;;;12.80;99.90;;;;;;5074568;28;20063;-62
2023/08/29 00:58:59;;;;;;;;;;;13.20;99.90;;;;;;5048787;28;20112;-58
2023/08/29 01:01:25;;;;;;;;;;;12.60;99.90;;;;;;5064090;28;19920;-59
2023/08/29 01:03:50;;;;;;;;;;;12.60;99.90;;;;;;5063733;28;20310;-65
2023/08/29 01:06:17;;;;;;;;;;;12.60;99.90;;;;;;5062737;28;25116;-62
2023/08/29 01:08:46;;;;;;;;;;;12.50;99.90;;;;;;5064031;28;19974;-58
2023/08/29 01:11:12;;;;;;;;;;;12.40;99.90;;;;;;5063883;28;20233;-59
2023/08/29 01:13:37;;;;;;;;;;;12.30;99.90;;;;;;5083330;28;19919;-61
2023/08/29 01:16:05;;;;;;;;;;;12.20;99.90;;;;;;5082687;28;25064;-60
2023/08/29 01:18:31;;;;;;;;;;;12.20;99.90;;;;;;5075258;28;25073;-61
2023/08/29 01:21:11;;;;;;;;;;;12.10;99.90;;;;;;5084294;28;19970;-61
2023/08/29 01:23:50;;;;;;;;;;;12.00;99.90;;;;;;5068069;28;25152;-56
2023/08/29 01:26:16;;;;;;;;;;;12.00;99.90;;;;;;5063618;28;19974;-61
2023/08/29 01:28:43;;;;;;;;;;;12.00;99.90;;;;;;5063254;28;25054;-61
2023/08/29 01:31:09;;;;;;;;;;;12.30;99.90;;;;;;5061110;28;20221;-61
2023/08/29 01:33:34;;;;;;;;;;;12.10;99.90;;;;;;5062962;28;20108;-61
2023/08/29 01:36:00;;;;;;;1152.87;882.93;;;12.00;99.90;;;;;;5045789;28;19963;-58
2023/08/29 01:38:26;;;;;;;11.40;7.18;;;12.00;99.90;;;;;;5064877;28;20063;-57
2023/08/29 01:40:52;;;;;;;8.32;6.65;;;12.10;99.90;;;;;;5064494;28;20525;-60
2023/08/29 01:43:17;;;;;;;10.90;7.03;;;12.10;99.90;;;;;;5046506;28;20719;-62
2023/08/29 01:45:43;;;;;;;8.60;6.85;;;12.20;99.90;;;;;;5064206;28;20082;-60
2023/08/29 01:48:11;;;;;;;8.35;6.88;;;12.20;99.90;;;;;;5064766;28;20048;-58
2023/08/29 01:50:37;;;;;;;7.95;6.47;;;12.20;99.90;;;;;;5063612;28;20071;-59
2023/08/29 01:53:04;;;;;;;7.43;6.50;;;12.20;99.90;;;;;;5027734;28;20093;-61
2023/08/29 01:55:30;;;;;;;9.25;6.72;;;12.20;99.90;;;;;;5066410;28;20082;-63
2023/08/29 01:57:58;;;;;;;8.02;6.88;;;12.20;99.90;;;;;;5072166;28;20037;-61
2023/08/29 02:00:25;;;;;;;9.80;7.07;;;12.20;99.90;;;;;;5063805;28;20642;-60
2023/08/29 02:02:51;;;;;;;9.25;7.13;;;12.10;99.90;;;;;;5044875;28;20671;-60
2023/08/29 02:05:16;;;;;;;9.13;7.05;;;12.00;99.90;;;;;;5063429;28;20044;-60
2023/08/29 02:07:42;;;;;;;9.27;7.05;;;12.00;99.90;;;;;;5064087;28;20511;-61
2023/08/29 02:10:08;;;;;;;9.02;6.40;;;12.00;99.90;;;;;;5028550;28;20043;-62
2023/08/29 02:12:34;;;;;;;7.00;6.22;;;12.00;99.90;;;;;;5063902;28;20055;-60
2023/08/29 02:15:00;;;;;;;8.65;6.75;;;12.00;99.90;;;;;;5064563;28;20036;-59
2023/08/29 02:17:27;;;;;;;9.45;6.55;;;12.00;99.90;;;;;;5063876;28;20172;-57
2023/08/29 02:19:52;;;;;;;11.20;7.03;;;12.00;99.90;;;;;;5063385;28;20055;-60
2023/08/29 02:22:18;;;;;;;10.60;6.57;;;12.00;99.90;;;;;;5063241;28;20052;-60
2023/08/29 02:24:47;;;;;;;8.05;6.78;;;11.90;99.90;;;;;;5064623;28;20418;-60
2023/08/29 02:27:13;;;;;;;8.73;6.50;;;11.90;99.90;;;;;;5063397;28;20048;-61
2023/08/29 02:29:39;;;;;;;9.50;6.28;;;11.80;99.90;;;;;;5064183;28;20067;-58
2023/08/29 02:32:04;;;;;;;7.78;6.47;;;11.80;99.90;;;;;;5063213;28;20047;-60
2023/08/29 02:34:30;;;;;;;10.18;6.57;;;11.80;99.90;;;;;;5063313;28;20037;-61
2023/08/29 02:36:55;;;;;;;7.50;6.03;;;11.90;99.90;;;;;;5063007;28;20692;-60
2023/08/29 02:39:21;;;;;;;6.57;5.80;;;12.30;99.90;;;;;;5063607;28;20069;-58
2023/08/29 02:41:47;;;;;;;8.75;5.78;;;11.90;99.90;;;;;;5062540;28;20402;-55
2023/08/29 02:44:13;;;;;;;7.88;5.60;;;13.50;99.90;;;;;;5063652;28;20049;-61
2023/08/29 02:46:39;;;;;;;8.40;5.38;;;12.00;99.90;;;;;;5062906;28;20048;-61
2023/08/29 02:49:04;;;;;;;8.90;5.60;;;11.90;99.90;;;;;;5028211;28;20507;-58
2023/08/29 02:51:30;;;;;;;7.85;5.53;;;11.80;99.90;;;;;;5044879;28;20054;-59
2023/08/29 02:53:55;;;;;;;7.63;5.28;;;11.80;99.90;;;;;;5063569;28;20040;-59
2023/08/29 02:56:21;;;;;;;7.93;5.80;;;11.90;99.90;;;;;;5053125;28;20122;-58
2023/08/29 02:58:47;;;;;;;7.70;5.85;;;11.80;99.90;;;;;;5067827;28;20052;-61
2023/08/29 03:01:12;;;;;;;;;;;11.80;99.90;;;;;;5076881;28;20052;-60
2023/08/29 03:03:38;;;;;;;58.97;16.67;;;11.70;99.90;;;;;;5083563;28;19978;-58
2023/08/29 03:06:04;;;;;;;7.88;5.70;;;11.70;99.90;;;;;;5086662;28;20044;-61
2023/08/29 03:08:30;;;;;;;8.07;5.93;;;11.70;99.90;;;;;;5086725;28;20050;-60
2023/08/29 03:10:56;;;;;;;6.75;5.47;;;12.00;99.90;;;;;;5086282;28;20040;-60
2023/08/29 03:13:22;;;;;;;7.97;6.15;;;11.70;99.90;;;;;;5087032;28;20043;-59
2023/08/29 03:15:48;;;;;;;7.97;5.70;;;11.70;99.90;;;;;;5069564;28;20056;-55
2023/08/29 03:18:14;;;;;;;7.47;5.40;;;11.70;99.90;;;;;;5085917;28;20090;-61
2023/08/29 03:20:40;;;;;;;;;;;11.60;99.90;;;;;;5085888;28;20409;-59
2023/08/29 03:23:06;;;;;;;;;;;11.60;99.90;;;;;;5082745;28;25161;-60
2023/08/29 03:25:31;;;;;;;84.78;25.15;;;11.60;99.90;;;;;;5087088;28;20576;-59
2023/08/29 03:27:57;;;;;;;7.85;5.10;;;11.60;99.90;;;;;;5086448;28;20504;-60
2023/08/29 03:30:25;;;;;;;8.05;5.57;;;11.60;99.90;;;;;;5087029;28;20474;-61
2023/08/29 03:32:51;;;;;;;6.03;4.68;;;11.50;99.90;;;;;;5086293;28;20040;-61
2023/08/29 03:35:17;;;;;;;5.72;5.13;;;11.50;99.90;;;;;;5086209;28;20044;-59
2023/08/29 03:37:43;;;;;;;6.80;4.78;;;11.40;99.90;;;;;;5086806;28;20044;-57
2023/08/29 03:40:10;;;;;;;5.75;4.85;;;11.40;99.90;;;;;;5087344;28;20830;-60
2023/08/29 03:42:35;;;;;;;9.00;5.85;;;11.40;99.90;;;;;;5086760;28;20093;-60
2023/08/29 03:45:02;;;;;;;7.55;6.13;;;11.30;99.90;;;;;;5068182;28;20091;-61
2023/08/29 03:47:28;;;;;;;9.23;6.05;;;11.30;99.90;;;;;;5085604;28;20032;-58
2023/08/29 03:49:54;;;;;;;9.10;6.45;;;11.30;99.90;;;;;;5086075;28;20113;-57
2023/08/29 03:52:23;;;;;;;7.57;6.18;;;11.30;99.90;;;;;;5086820;28;20441;-58
2023/08/29 03:54:48;;;;;;;6.88;5.95;;;11.40;99.90;;;;;;5067469;28;20532;-59
2023/08/29 03:57:14;;;;;;;7.97;5.70;;;12.50;99.90;;;;;;5076703;28;20037;-61
2023/08/29 03:59:40;;;;;;;7.32;5.40;;;11.50;99.90;;;;;;5048064;28;20036;-62
2023/08/29 04:02:06;;;;;;;5.97;4.97;;;11.50;99.90;;;;;;5064566;28;20045;-58
2023/08/29 04:04:32;;;;;;;8.80;5.32;;;11.50;99.90;;;;;;5065626;28;20067;-59
2023/08/29 04:06:59;;;;;;;7.55;4.93;;;11.50;99.90;;;;;;5066721;28;20040;-59
2023/08/29 04:09:25;;;;;;;7.75;4.97;;;11.50;99.90;;;;;;5047412;28;20087;-60
2023/08/29 04:11:51;;;;;;;7.05;5.10;;;11.40;99.90;;;;;;5065264;28;20470;-61
2023/08/29 04:14:17;;;;;;;6.95;5.03;;;11.30;99.90;;;;;;5066185;28;20041;-62
2023/08/29 04:16:44;;;;;;;6.85;4.60;;;11.30;99.90;;;;;;5065122;28;20134;-60
2023/08/29 04:19:09;;;;;;;6.35;4.93;;;11.30;99.90;;;;;;5065946;28;20040;-56
2023/08/29 04:21:35;;;;;;;6.35;5.32;;;11.20;99.90;;;;;;5066846;28;20060;-61
2023/08/29 04:24:01;;;;;;;11.63;5.20;;;11.20;99.90;;;;;;5066131;28;20080;-62
2023/08/29 04:26:26;;;;;;;7.15;5.22;;;11.20;99.90;;;;;;5065135;28;20059;-61
2023/08/29 04:28:52;;;;;;;6.35;5.03;;;11.20;99.90;;;;;;5066637;28;20045;-54
2023/08/29 04:31:19;;;;;;;6.75;4.93;;;11.20;99.90;;;;;;5064731;28;20037;-58
2023/08/29 04:33:45;;;;;;;6.63;4.82;;;11.50;99.90;;;;;;5066011;28;20036;-61
2023/08/29 04:36:16;;;;;;;7.25;5.13;;;11.10;99.90;;;;;;5064702;28;20067;-61
2023/08/29 04:38:44;;;;;;;7.93;4.88;;;11.10;99.90;;;;;;5066010;28;20425;-59
2023/08/29 04:41:11;;;;;;;7.38;5.43;;;11.20;99.90;;;;;;5064864;28;20056;-59
2023/08/29 04:43:38;;;;;;;7.95;5.15;;;11.20;99.90;;;;;;5064498;28;20048;-61
2023/08/29 04:46:04;;;;;;;7.40;5.88;;;11.20;99.90;;;;;;5064608;28;20066;-61
2023/08/29 04:48:30;;;;;;;7.82;5.57;;;11.20;99.90;;;;;;5066077;28;20044;-55
2023/08/29 04:50:56;;;;;;;11.68;6.35;;;11.60;99.90;;;;;;5047686;28;20040;-58
2023/08/29 04:53:21;;;;;;;7.32;5.45;;;11.30;99.90;;;;;;5065722;28;20094;-62
2023/08/29 04:55:47;;;;;;;7.35;5.80;;;12.00;99.90;;;;;;5068138;28;20080;-60
2023/08/29 04:58:12;;;;;;;7.38;5.25;;;11.30;99.90;;;;;;5073079;28;20135;-61
2023/08/29 05:00:38;;;;;;;7.88;5.90;;;11.40;99.90;;;;;;5064670;28;20486;-59
2023/08/29 05:03:04;;;;;;;8.88;5.70;;;11.40;99.90;;;;;;5063396;28;20052;-61
2023/08/29 05:05:30;;;;;;;7.75;5.60;;;11.40;99.90;;;;;;5065121;28;20402;-61
2023/08/29 05:07:57;;;;;;;8.10;5.75;;;11.40;99.90;;;;;;5046346;28;20059;-60
2023/08/29 05:10:22;;;;;;;7.05;5.10;;;11.40;99.90;;;;;;5072984;28;20040;-59
2023/08/29 05:12:48;;;;;;;7.45;5.50;;;11.60;99.90;;;;;;5085381;28;20040;-58
2023/08/29 05:15:16;;;;;;;7.40;5.25;;;11.40;99.90;;;;;;5062744;28;20044;-61
2023/08/29 05:17:42;;;;;;;7.03;5.03;;;11.50;99.90;;;;;;5063065;28;20082;-61
2023/08/29 05:20:09;;;;;;;8.30;5.70;;;11.50;99.90;;;;;;5065059;28;20497;-61
2023/08/29 05:22:35;;;;;;;7.35;5.30;;;11.50;99.90;;;;;;5064101;28;20053;-61
2023/08/29 05:25:01;;;;;;;8.63;5.60;;;11.50;99.90;;;;;;5064183;28;20658;-61
2023/08/29 05:27:27;;;;;;;6.75;5.03;;;11.60;99.90;;;;;;5064468;28;20052;-60
2023/08/29 05:29:53;;;;;;;7.93;5.03;;;11.70;99.90;;;;;;5065455;28;20040;-56
2023/08/29 05:32:18;;;;;;;6.82;5.00;;;11.80;99.90;;;;;;5064063;28;20098;-60
2023/08/29 05:34:44;;;;;;;6.78;4.95;;;11.80;99.90;;;;;;5064195;28;20406;-61
2023/08/29 05:37:09;;;;;;;6.10;4.50;;;11.90;99.90;;;;;;5064293;28;20049;-58
2023/08/29 05:39:35;;;;;;;6.75;4.65;;;12.00;99.90;;;;;;5046409;28;20052;-59
2023/08/29 05:42:01;;;;;;;8.07;4.60;;;12.10;99.90;;;;;;5063141;28;20124;-61
2023/08/29 05:44:26;;;;;;;6.03;4.72;;;12.20;99.90;;;;;;5067524;28;20461;-58
2023/08/29 05:46:52;;;;;;;5.95;4.10;;;12.50;99.90;;;;;;5084515;28;20043;-58
2023/08/29 05:49:17;;;;;;;5.90;4.20;;;12.80;99.90;;;;;;5085337;28;20039;-60
2023/08/29 05:51:43;;;;;;;5.03;3.90;;;13.10;99.90;;;;;;5083624;28;20040;-55
2023/08/29 05:54:09;;;;;;;4.88;3.90;;;13.40;99.90;;;;;;5084092;28;20055;-61
2023/08/29 05:56:35;;;;;;;5.57;3.83;;;13.50;99.90;;;;;;5065309;28;20051;-62
2023/08/29 05:59:01;;;;;;;7.60;3.90;;;13.60;99.90;;;;;;5065434;28;20044;-58
2023/08/29 06:01:26;;;;;;;6.63;3.70;;;13.60;99.90;;;;;;5063688;28;20056;-57
2023/08/29 06:03:53;;;;;;;4.28;3.63;;;13.70;99.90;;;;;;5063666;28;20041;-61
2023/08/29 06:06:19;;;;;;;7.47;3.92;;;13.90;99.90;;;;;;5063917;28;20608;-61
2023/08/29 06:08:46;;;;;;;4.45;3.38;;;14.10;99.90;;;;;;5062439;28;20041;-58
2023/08/29 06:11:12;;;;;;;5.65;3.88;;;14.40;99.90;;;;;;5063897;28;20093;-55
2023/08/29 06:13:38;;;;;;;5.05;3.78;;;14.40;99.90;;;;;;5063314;28;20043;-59
2023/08/29 06:16:03;;;;;;;4.53;3.28;;;14.70;99.90;;;;;;5062830;28;20213;-59
2023/08/29 06:18:29;;;;;;;7.28;3.60;;;14.90;99.90;;;;;;5063049;28;20075;-56
2023/08/29 06:20:55;;;;;;;4.70;3.25;;;15.00;99.90;;;;;;5064312;28;20045;-61
2023/08/29 06:23:21;;;;;;;6.47;3.45;;;15.10;99.90;;;;;;5076889;28;20048;-58
2023/08/29 06:25:48;;;;;;;5.85;3.28;;;15.20;99.90;;;;;;5065669;28;20063;-58
2023/08/29 06:28:14;;;;;;;4.00;2.88;;;15.20;99.90;;;;;;5083841;28;20044;-59
2023/08/29 06:30:40;;;;;;;5.65;3.60;;;15.40;99.90;;;;;;5083391;28;20433;-61
2023/08/29 06:33:06;;;;;;;3.88;2.70;;;15.50;99.90;;;;;;5083725;28;20692;-57
2023/08/29 06:35:35;;;;;;;7.15;3.33;;;15.80;99.90;;;;;;5083953;28;20044;-61
2023/08/29 06:38:01;;;;;;;8.85;3.50;;;15.90;99.90;;;;;;5084060;28;20048;-58
2023/08/29 06:40:27;;;;;;;4.05;3.15;;;16.10;99.90;;;;;;5088466;28;20052;-57
2023/08/29 06:42:52;;;;;;;5.50;2.97;;;16.30;99.90;;;;;;5087709;28;20077;-60
2023/08/29 06:45:18;;;;;;;4.47;3.13;;;16.80;99.90;;;;;;5088152;28;20734;-61
2023/08/29 06:47:43;;;;;;;6.03;3.15;;;17.00;99.90;;;;;;5087208;28;20093;-58
2023/08/29 06:50:09;;;;;;;5.70;2.80;;;17.20;99.90;;;;;;5087323;28;20093;-58
2023/08/29 06:52:35;;;;;;;3.85;3.15;;;17.40;99.90;;;;;;5087581;28;20515;-56
2023/08/29 06:55:02;;;;;;;4.30;2.65;;;17.80;99.90;;;;;;5079001;28;20060;-61
2023/08/29 06:57:28;;;;;;;8.40;2.92;;;18.00;99.90;;;;;;5077826;28;20048;-61
2023/08/29 06:59:53;;;;;;;4.93;3.10;;;18.10;99.90;;;;;;5081203;28;20040;-61
2023/08/29 07:02:19;;;;;;;3.70;2.78;;;18.10;99.90;;;;;;5086855;28;20040;-57
2023/08/29 07:04:44;;;;;;;3.80;2.78;;;17.80;99.90;;;;;;5087511;28;20059;-61
2023/08/29 07:07:10;;;;;;;5.30;3.00;;;17.70;99.90;;;;;;5087171;28;20044;-61
2023/08/29 07:09:36;;;;;;;5.05;2.75;;;17.80;99.90;;;;;;5086708;28;20545;-60
2023/08/29 07:12:01;;;;;;;4.43;2.38;;;17.90;99.90;;;;;;5087547;28;20036;-59
2023/08/29 07:14:27;;;;;;;4.40;2.50;;;17.80;99.90;;;;;;5085677;28;20467;-60
2023/08/29 07:16:54;;;;;;;5.63;2.55;;;17.70;99.90;;;;;;5073415;28;20025;-60
2023/08/29 07:19:19;;;;;;;3.92;2.53;;;17.90;99.90;;;;;;5075927;28;20052;-60
2023/08/29 07:21:45;;;;;;;4.95;2.55;;;18.00;99.90;;;;;;5073307;28;20051;-57
2023/08/29 07:24:10;;;;;;;4.38;2.55;;;17.80;99.90;;;;;;5057004;28;20070;-57
2023/08/29 07:26:36;;;;;;;3.88;2.60;;;17.80;99.90;;;;;;5078725;28;20040;-58
2023/08/29 07:29:03;;;;;;;4.90;2.67;;;18.00;99.90;;;;;;5078632;28;20036;-60
2023/08/29 07:31:28;;;;;;;4.20;2.55;;;18.30;99.90;;;;;;5086884;28;20059;-60
2023/08/29 07:33:54;;;;;;;5.13;2.75;;;18.60;99.90;;;;;;5086805;28;20044;-56
2023/08/29 07:36:19;;;;;;;6.00;2.88;;;18.90;99.90;;;;;;5087323;28;20120;-60
2023/08/29 07:38:45;;;;;;;4.70;2.65;;;18.90;99.90;;;;;;5087131;28;20161;-60
2023/08/29 07:41:11;;;;;;;6.53;2.80;;;19.00;99.90;;;;;;5087209;28;20188;-58
2023/08/29 07:43:36;;;;;;;4.00;2.63;;;19.00;99.90;;;;;;5086889;28;20047;-60
2023/08/29 07:46:02;;;;;;;3.95;2.63;;;18.90;99.90;;;;;;5072053;28;20067;-55
2023/08/29 07:48:28;;;;;;;6.07;2.80;;;18.80;99.90;;;;;;5066908;28;20041;-61
2023/08/29 07:50:54;;;;;;;4.13;2.50;;;18.80;99.90;;;;;;5070214;28;20048;-61
2023/08/29 07:53:19;;;;;;;5.30;2.72;;;18.70;99.90;;;;;;5073208;28;20037;-59
2023/08/29 07:55:45;;;;;;;4.47;2.45;;;18.70;99.90;;;;;;5069434;28;20053;-59
2023/08/29 07:58:11;;;;;;;3.53;1.75;;;18.80;99.90;;;;;;5075550;28;20084;-61
2023/08/29 08:00:36;;;;;;;4.10;1.80;;;18.90;99.90;;;;;;5065358;28;20150;-61
2023/08/29 08:03:03;;;;;;;2.70;1.50;;;19.00;99.90;;;;;;5049143;28;20473;-55
2023/08/29 08:05:29;;;;;;;3.85;1.73;;;18.90;99.90;;;;;;5048801;28;20084;-60
2023/08/29 08:08:00;;;;;;;3.63;1.70;;;19.00;99.90;;;;;;5065460;28;20053;-59
2023/08/29 08:10:25;;;;;;;3.17;1.45;;;19.10;99.90;;;;;;5065636;28;20044;-55
2023/08/29 08:12:51;;;;;;;1.83;1.02;;;19.10;99.90;;;;;;5074776;28;20543;-59
2023/08/29 08:15:17;;;;;;;3.25;1.00;;;19.20;99.90;;;;;;5085307;28;20147;-61
2023/08/29 08:17:43;;;;;;;3.60;1.30;;;19.20;99.90;;;;;;5085535;28;20051;-58
2023/08/29 08:20:09;;;;;;;2.13;1.38;;;19.20;99.90;;;;;;5068702;28;20033;-57
2023/08/29 08:22:39;;;;;;;3.17;1.20;;;19.20;99.90;;;;;;5065734;28;20057;-57
2023/08/29 08:25:07;;;;;;;2.08;1.10;;;19.50;99.90;;;;;;5066015;28;20368;-60
2023/08/29 08:27:34;;;;;;;3.38;1.17;;;19.90;99.90;;;;;;5066353;28;20068;-58
2023/08/29 08:30:00;;;;;;;4.40;1.25;;;19.80;99.90;;;;;;5066561;28;20051;-62
2023/08/29 08:32:26;;;;;;;2.83;1.20;;;19.70;99.90;;;;;;5064835;28;20052;-63
2023/08/29 08:34:53;;;;;;;3.10;0.90;;;19.90;99.90;;;;;;5084649;28;20646;-63
2023/08/29 08:37:19;;;;;;;1.38;0.90;;;20.10;99.90;;;;;;5085054;28;20055;-56
2023/08/29 08:39:45;;;;;;;1.23;0.70;;;20.00;99.90;;;;;;5085561;28;20119;-54
2023/08/29 08:42:11;;;;;;;2.38;0.93;;;19.70;99.90;;;;;;5066363;28;20119;-60
2023/08/29 08:44:38;;;;;;;3.78;0.90;;;19.40;99.90;;;;;;5085328;28;20109;-60
2023/08/29 08:47:05;;;;;;;1.67;0.80;;;19.30;99.90;;;;;;5085241;28;20059;-61
2023/08/29 08:49:31;;;;;;;1.50;0.70;;;19.30;99.90;;;;;;5085508;28;20048;-61
2023/08/29 08:51:58;;;;;;;2.30;0.57;;;19.20;99.90;;;;;;5066840;28;20035;-59
2023/08/29 08:54:24;;;;;;;2.05;0.73;;;19.20;99.90;;;;;;5085625;28;20044;-58
2023/08/29 08:56:50;;;;;;;1.73;0.80;;;19.50;99.90;;;;;;5078790;28;20482;-59
2023/08/29 08:59:17;;;;;;;1.88;0.70;;;19.90;99.90;;;;;;5064992;28;20087;-69
2023/08/29 09:01:42;;;;;;;1.80;0.77;;;20.00;99.90;;;;;;5064240;28;20036;-60
2023/08/29 09:04:09;;;;;;;1.70;0.90;;;19.90;99.90;;;;;;5065248;28;20059;-64
2023/08/29 09:06:35;;;;;;;2.35;0.90;;;19.80;99.90;;;;;;5064425;28;20036;-61
2023/08/29 09:09:24;;;;;;;2.22;0.80;;;19.50;99.90;;;;;;5065148;28;20055;-66
2023/08/29 09:11:54;;;;;;;2.08;0.70;;;19.20;99.90;;;;;;5064241;28;20037;-61
2023/08/29 09:14:21;;;;;;;1.63;0.77;;;19.20;99.90;;;;;;5064403;28;20209;-66
2023/08/29 09:16:51;;;;;;;3.45;0.70;;;19.40;99.90;;;;;;5050976;28;20088;-60
2023/08/29 09:19:21;;;;;;;1.45;0.65;;;19.50;99.90;;;;;;5046534;28;20372;-60
2023/08/29 09:21:47;;;;;;;1.35;0.70;;;19.60;99.90;;;;;;5081000;28;20059;-65
2023/08/29 09:24:13;;;;;;;1.40;0.60;;;20.00;99.90;;;;;;5084470;28;20059;-59
2023/08/29 09:26:40;;;;;;;2.50;0.80;;;20.90;99.90;;;;;;5084798;28;20467;-65
2023/08/29 09:29:20;;;;;;;1.42;0.50;;;20.50;99.90;;;;;;5084158;28;20059;-62
2023/08/29 09:31:47;;;;;;;1.27;0.80;;;20.30;99.90;;;;;;5065225;28;20040;-65
2023/08/29 09:34:27;;;;;;;1.65;0.80;;;20.10;99.90;;;;;;5061850;28;20096;-65
2023/08/29 09:36:53;;;;;;;2.75;0.70;;;20.00;99.90;;;;;;5085010;28;20056;-63
2023/08/29 09:39:20;;;;;;;2.42;0.65;;;20.00;99.90;;;;;;5077795;28;20080;-60
2023/08/29 09:42:07;;;;;;;2.70;0.65;;;19.80;99.90;;;;;;5084145;28;20375;-67
2023/08/29 09:44:38;;;;;;;3.85;0.90;;;19.50;99.90;;;;;;5085296;28;20048;-61
2023/08/29 09:47:05;;;;;;;1.40;0.55;;;19.20;99.90;;;;;;5084072;28;20043;-63
2023/08/29 09:49:47;;;;;;;3.90;0.68;;;19.00;99.90;;;;;;5077240;28;20124;-61
2023/08/29 09:52:15;;;;;;;1.35;0.60;;;18.90;99.90;;;;;;5064512;28;20139;-63
2023/08/29 09:54:48;;;;;;;1.88;0.60;;;18.90;99.90;;;;;;5066690;28;20533;-62
2023/08/29 09:57:15;;;;;;;2.70;0.40;;;19.10;99.90;;;;;;5077154;28;20040;-64
2023/08/29 09:59:43;;;;;;;2.67;0.60;;;19.40;99.90;;;;;;5085228;28;20068;-61
2023/08/29 10:02:11;;;;;;;1.70;0.70;;;19.80;99.90;;;;;;5069764;28;20055;-55
2023/08/29 10:04:53;;;;;;;4.00;0.88;;;20.10;99.90;;;;;;5074257;28;20055;-64
2023/08/29 10:07:34;;;;;;;1.42;0.70;;;20.40;99.90;;;;;;5049711;28;20059;-62
2023/08/29 10:10:01;;;;;;;1.17;0.60;;;20.60;99.90;;;;;;5068824;28;20044;-63
2023/08/29 10:12:28;;;;;;;1.55;0.60;;;20.70;99.90;;;;;;5072279;28;20660;-64
2023/08/29 10:14:54;;;;;;;1.85;0.68;;;20.90;99.90;;;;;;5048802;28;20427;-61
2023/08/29 10:17:20;;;;;;;2.83;0.60;;;21.10;99.90;;;;;;5057785;28;20036;-63
2023/08/29 10:19:47;;;;;;;2.55;0.60;;;21.20;99.90;;;;;;5063670;28;20051;-66
2023/08/29 10:22:14;;;;;;;0.60;0.40;;;21.30;99.90;;;;;;5063688;28;20059;-64
2023/08/29 10:24:43;;;;;;;2.03;0.63;;;21.40;99.90;;;;;;5064200;28;20114;-64
2023/08/29 10:27:10;;;;;;;0.90;0.38;;;21.80;99.90;;;;;;5073324;28;20044;-63
2023/08/29 10:29:37;;;;;;;1.38;0.50;;;22.30;99.90;;;;;;5083690;28;20048;-59
2023/08/29 10:32:03;;;;;;;1.23;0.80;;;22.50;99.00;;;;;;5067349;28;20352;-61
2023/08/29 10:34:30;;;;;;;2.13;0.60;;;22.50;98.40;;;;;;5065868;28;20052;-61
2023/08/29 10:36:59;;;;;;;1.13;0.70;;;22.20;98.70;;;;;;5079250;28;20098;-62
2023/08/29 10:39:26;;;;;;;2.97;0.60;;;21.90;98.70;;;;;;5063853;28;20066;-66
2023/08/29 10:41:54;;;;;;;3.22;0.68;;;21.70;99.20;;;;;;5046378;28;20119;-63
2023/08/29 10:44:41;;;;;;;5.05;0.70;;;21.60;99.40;;;;;;5045727;28;20534;-66
2023/08/29 10:47:26;;;;;;;2.83;0.90;;;21.60;99.60;;;;;;5064710;28;20037;-65
2023/08/29 10:49:58;;;;;;;;;;;21.60;99.80;;;;;;5072610;28;20079;-63
2023/08/29 10:52:37;;;;;;;2.75;0.70;;;21.50;99.80;;;;;;5063913;28;19968;-58
2023/08/29 10:55:18;;;;;;;3.75;1.02;;;21.60;99.90;;;;;;5047716;28;20075;-62
2023/08/29 10:57:44;;;;;;;2.53;0.82;;;21.70;99.30;;;;;;5072033;28;20402;-61
2023/08/29 11:00:20;;;;;;;2.45;0.75;;;22.00;99.80;;;;;;5063674;28;20037;-62
2023/08/29 11:02:47;;;;;;;3.03;0.95;;;22.20;99.30;;;;;;5063656;28;20052;-64
2023/08/29 11:05:14;;;;;;;1.23;0.60;;;22.20;98.30;;;;;;5063227;28;20049;-62
2023/08/29 11:07:40;;;;;;;1.30;0.82;;;22.20;98.30;;;;;;5064437;28;20094;-64
2023/08/29 11:10:20;;;;;;;2.40;1.00;;;22.10;98.10;;;;;;5062995;28;20049;-64
2023/08/29 11:13:06;;;;;;;1.60;0.60;;;22.20;97.80;;;;;;5063944;28;20127;-57
2023/08/29 11:16:04;;;;;;;2.35;1.15;;;22.30;97.40;;;;;;5062253;28;20041;-60
2023/08/29 11:18:32;;;;;;;1.80;0.70;;;22.30;97.00;;;;;;5044087;28;20049;-59
2023/08/29 11:21:18;;;;;;;3.20;0.77;;;22.20;97.70;;;;;;5063116;28;20113;-57
2023/08/29 11:23:44;;;;;;;4.05;1.02;;;22.20;97.80;;;;;;5062802;28;20128;-60
2023/08/29 11:26:10;;;;;;;6.40;1.55;;;22.10;97.80;;;;;;5065316;28;20476;-61
2023/08/29 11:28:45;;;;;;;2.95;1.20;;;21.90;98.20;;;;;;5066796;28;20044;-60
2023/08/29 11:31:12;;;;;;;2.88;1.20;;;21.70;97.90;;;;;;5084460;28;20044;-58
2023/08/29 11:33:38;;;;;;;2.63;1.33;;;21.70;98.00;;;;;;5079896;28;20044;-63
2023/08/29 11:36:06;;;;;;;2.88;1.20;;;21.70;97.80;;;;;;5082563;28;20175;-63
2023/08/29 11:38:32;;;;;;;1.98;1.08;;;21.70;97.70;;;;;;5066857;28;20521;-63
2023/08/29 11:40:59;;;;;;;2.95;1.38;;;21.80;97.00;;;;;;5066653;28;20076;-62
2023/08/29 11:43:25;;;;;;;2.05;1.20;;;21.70;97.10;;;;;;5065817;28;20447;-61
2023/08/29 11:45:53;;;;;;;2.72;1.10;;;21.50;97.00;;;;;;5065905;28;20080;-61
2023/08/29 11:48:26;;;;;;;1.50;1.00;;;21.30;97.70;;;;;;5049164;28;20052;-61
2023/08/29 11:50:53;;;;;;;1.42;0.80;;;21.30;97.60;;;;;;5059883;28;20061;-61
2023/08/29 11:53:31;;;;;;;1.65;0.82;;;21.40;97.90;;;;;;5053561;28;20190;-63
2023/08/29 11:55:57;;;;;;;2.90;0.88;;;21.50;97.50;;;;;;5070610;28;20446;-63
2023/08/29 11:58:36;;;;;;;2.78;0.98;;;21.60;96.50;;;;;;5079721;28;20044;-63
2023/08/29 12:01:03;;;;;;;1.30;0.90;;;21.70;96.80;;;;;;5085723;28;20451;-60
2023/08/29 12:03:29;;;;;;;1.52;0.70;;;21.50;96.90;;;;;;5067648;28;20040;-61
2023/08/29 12:05:59;;;;;;;1.85;1.00;;;21.60;97.10;;;;;;5069257;28;20477;-64
2023/08/29 12:08:35;;;;;;;2.90;0.80;;;21.70;96.60;;;;;;5078258;28;20051;-61
2023/08/29 12:11:01;;;;;;;1.40;1.00;;;21.80;96.90;;;;;;5085925;28;20052;-60
2023/08/29 12:13:26;;;;;;;2.22;1.08;;;21.90;96.20;;;;;;5087004;28;20055;-63
2023/08/29 12:15:52;;;;;;;1.52;0.93;;;21.60;96.40;;;;;;5085704;28;20043;-62
2023/08/29 12:18:24;;;;;;;2.63;1.00;;;21.30;97.00;;;;;;5066877;28;20066;-64
2023/08/29 12:20:51;;;;;;;2.05;1.00;;;21.30;97.40;;;;;;5048572;28;20055;-64
2023/08/29 12:23:29;;;;;;;1.73;0.85;;;21.20;97.60;;;;;;5080997;28;20063;-62
2023/08/29 12:25:56;;;;;;;2.42;1.20;;;21.30;97.70;;;;;;5085501;28;20036;-52
2023/08/29 12:28:25;;;;;;;3.10;1.10;;;21.40;97.40;;;;;;5085863;28;20126;-60
2023/08/29 12:30:54;;;;;;;1.63;1.05;;;21.30;97.80;;;;;;5070833;28;20044;-60
2023/08/29 12:33:20;;;;;;;3.17;1.10;;;21.30;98.00;;;;;;5065702;28;20032;-61
2023/08/29 12:35:46;;;;;;;1.73;0.98;;;21.30;98.20;;;;;;5065560;28;20158;-63
2023/08/29 12:38:11;;;;;;;2.10;1.00;;;21.30;98.10;;;;;;5065329;28;20485;-63
2023/08/29 12:40:37;;;;;;;2.50;1.10;;;21.20;97.70;;;;;;5065962;28;20431;-58
2023/08/29 12:43:06;;;;;;;1.83;0.88;;;21.10;98.10;;;;;;5064945;28;20044;-59
2023/08/29 12:45:32;;;;;;;2.53;1.10;;;21.10;98.40;;;;;;5065052;28;20036;-62
2023/08/29 12:47:57;;;;;;;1.60;0.88;;;21.00;98.10;;;;;;5062531;28;20104;-62
2023/08/29 12:50:23;;;;;;;4.00;0.90;;;21.10;98.20;;;;;;5085077;28;20104;-63
2023/08/29 12:52:49;;;;;;;2.72;0.98;;;21.20;98.10;;;;;;5085942;28;20279;-59
2023/08/29 12:55:15;;;;;;;1.58;0.90;;;21.20;97.40;;;;;;5083731;28;20081;-59